Terminal Aerodrome Forecast
Issued by NWS

Home | Current Version | Previous Version | Text Only | Print | Product List | Glossary On
Versions: 1 2 3 4 5 6 7 8 9 10 11 12 13 14 15 16 17 18 19 20 21 22 23 24 25 26 27 28 29 30
982
FTUS46 KLOX 212329
TAFBUR
TAF
KBUR 212329Z 2200/2224 20010KT P6SM SCT025 SCT100
     FM220600 13006KT P6SM BKN025 OVC100
     FM220900 14010KT P6SM -SHRA BKN025 OVC050
     FM221400 14015G25KT 4SM -RA BR BKN012 OVC025
     FM221700 14020G30KT 1SM +RA BR BKN007 OVC012=

USA.gov is the U.S. government's official web portal to all federal, state and local government web resources and services.